createdAt,value
2018-09-14T00:01:53.344Z,12.68
2018-09-14T00:04:21.823Z,12.63
2018-09-14T00:06:50.305Z,12.67
2018-09-14T00:09:19.527Z,12.71
2018-09-14T00:11:48.152Z,12.69
2018-09-14T00:14:16.715Z,12.65
2018-09-14T00:16:45.271Z,12.72
2018-09-14T00:19:14.666Z,12.68
2018-09-14T00:21:43.871Z,12.65
2018-09-14T00:24:12.281Z,12.65
2018-09-14T00:26:40.880Z,12.68
2018-09-14T00:29:09.360Z,12.58
2018-09-14T00:31:37.751Z,12.41
2018-09-14T00:34:06.198Z,12.34
2018-09-14T00:36:35.084Z,12.22
2018-09-14T00:39:03.638Z,12.14
2018-09-14T00:41:32.074Z,12.10
2018-09-14T00:44:00.483Z,12.06
2018-09-14T00:46:28.876Z,12.05
2018-09-14T00:48:57.242Z,12.02
2018-09-14T00:51:25.955Z,12.06
2018-09-14T00:53:54.417Z,12.00
2018-09-14T00:56:22.854Z,11.99
2018-09-14T00:58:51.388Z,11.97
2018-09-14T01:01:20.295Z,12.09
2018-09-14T01:03:49.085Z,12.17
2018-09-14T01:06:17.502Z,12.12
2018-09-14T01:08:46.628Z,12.15
2018-09-14T01:11:15.284Z,12.07
2018-09-14T01:13:43.794Z,12.02
2018-09-14T01:16:12.224Z,11.95
2018-09-14T01:18:41.426Z,12.05
2018-09-14T01:21:09.867Z,12.10
2018-09-14T01:23:38.516Z,12.12
2018-09-14T01:26:07.238Z,12.11
2018-09-14T01:28:35.830Z,12.15
2018-09-14T01:31:04.296Z,12.19
2018-09-14T01:33:33.305Z,12.13
2018-09-14T01:36:07.095Z,12.13
2018-09-14T01:38:35.483Z,12.10
2018-09-14T01:41:03.871Z,12.09
2018-09-14T01:43:32.247Z,12.15
2018-09-14T01:46:00.627Z,12.10
2018-09-14T01:48:29.448Z,12.19
2018-09-14T01:50:57.801Z,12.18
2018-09-14T01:53:26.223Z,12.22
2018-09-14T01:55:54.510Z,12.13
2018-09-14T01:58:22.855Z,12.10
2018-09-14T02:00:51.813Z,12.04
2018-09-14T02:03:20.231Z,12.00
2018-09-14T02:05:48.480Z,11.97
2018-09-14T02:08:16.837Z,11.91
2018-09-14T02:10:45.193Z,11.94
2018-09-14T02:13:13.572Z,11.97
2018-09-14T02:15:41.976Z,12.05
2018-09-14T02:18:10.290Z,12.07
2018-09-14T02:20:38.679Z,12.09
2018-09-14T02:23:07.062Z,12.02
2018-09-14T02:25:35.436Z,12.04
2018-09-14T02:28:03.780Z,12.05
2018-09-14T02:30:32.117Z,12.13
2018-09-14T02:33:01.243Z,12.20
2018-09-14T02:35:30.530Z,12.20
2018-09-14T02:37:58.905Z,12.20
2018-09-14T02:40:27.266Z,12.23
2018-09-14T02:42:55.587Z,12.27
2018-09-14T02:45:23.933Z,12.28
2018-09-14T02:47:52.562Z,12.26
2018-09-14T02:50:20.968Z,12.28
2018-09-14T02:52:49.328Z,12.28
2018-09-14T02:55:17.731Z,12.26
2018-09-14T02:57:46.851Z,12.26
2018-09-14T03:00:15.293Z,12.22
2018-09-14T03:02:43.596Z,12.26
2018-09-14T03:05:11.950Z,12.23
2018-09-14T03:07:40.470Z,12.14
2018-09-14T03:10:09.795Z,12.05
2018-09-14T03:12:38.105Z,12.07
2018-09-14T03:15:06.483Z,12.13
2018-09-14T03:17:35.520Z,12.12
2018-09-14T03:20:03.968Z,12.14
2018-09-14T03:22:32.295Z,12.16
2018-09-14T03:25:00.649Z,12.04
2018-09-14T03:27:28.991Z,12.07
2018-09-14T03:29:57.305Z,12.07
2018-09-14T03:32:25.717Z,12.12
2018-09-14T03:34:54.062Z,12.13
2018-09-14T03:37:22.383Z,12.11
2018-09-14T03:39:50.688Z,12.14
2018-09-14T03:42:19.087Z,12.13
2018-09-14T03:44:47.482Z,12.19
2018-09-14T03:47:15.819Z,12.18
2018-09-14T03:49:44.215Z,12.19
2018-09-14T03:52:12.608Z,12.19
2018-09-14T03:54:40.971Z,12.21
2018-09-14T03:57:09.365Z,12.21
2018-09-14T03:59:38.672Z,12.18
2018-09-14T04:02:07.690Z,12.20
2018-09-14T04:04:36.646Z,12.23
2018-09-14T04:07:05.127Z,12.17
2018-09-14T04:09:33.663Z,12.21
2018-09-14T04:12:02.236Z,12.18
2018-09-14T04:14:30.649Z,12.22
2018-09-14T04:16:59.151Z,12.28
2018-09-14T04:19:27.563Z,12.25
2018-09-14T04:21:55.958Z,12.23
2018-09-14T04:24:24.371Z,12.21
2018-09-14T04:26:52.840Z,12.23
2018-09-14T04:29:21.325Z,12.23
2018-09-14T04:31:50.145Z,12.19
2018-09-14T04:34:18.915Z,12.14
2018-09-14T04:36:47.366Z,12.14
2018-09-14T04:39:15.804Z,12.13
2018-09-14T04:41:44.265Z,12.16
2018-09-14T04:44:12.607Z,12.16
2018-09-14T04:46:41.091Z,12.17
2018-09-14T04:49:09.443Z,12.21
2018-09-14T04:51:37.858Z,12.22
2018-09-14T04:54:06.238Z,12.27
2018-09-14T04:56:34.867Z,12.26
2018-09-14T04:59:03.306Z,12.30
2018-09-14T05:01:31.623Z,12.23
2018-09-14T05:03:59.962Z,12.25
2018-09-14T05:06:28.307Z,12.27
2018-09-14T05:08:56.625Z,12.27
2018-09-14T05:11:25.241Z,12.35
2018-09-14T05:13:54.697Z,12.41
2018-09-14T05:16:23.013Z,12.39
2018-09-14T05:18:51.352Z,12.41
2018-09-14T05:21:19.684Z,12.41
2018-09-14T05:23:48.126Z,12.43
2018-09-14T05:26:16.469Z,12.49
2018-09-14T05:28:44.810Z,12.52
2018-09-14T05:31:13.196Z,12.57
2018-09-14T05:33:41.523Z,12.44
2018-09-14T05:36:09.907Z,12.54
2018-09-14T05:38:39.678Z,12.46
2018-09-14T05:41:08.121Z,12.52
2018-09-14T05:43:36.920Z,12.52
2018-09-14T05:46:05.260Z,12.56
2018-09-14T05:48:34.045Z,12.58
2018-09-14T05:51:02.365Z,12.60
2018-09-14T05:53:30.813Z,12.59
2018-09-14T05:55:59.187Z,12.66
2018-09-14T05:58:28.846Z,12.57
2018-09-14T06:00:57.260Z,12.57
2018-09-14T06:03:25.652Z,12.57
2018-09-14T06:05:54.054Z,12.66
2018-09-14T06:08:23.774Z,12.77
2018-09-14T06:10:52.185Z,12.76
2018-09-14T06:13:20.575Z,12.65
2018-09-14T06:15:49.535Z,12.74
2018-09-14T06:18:18.104Z,12.67
2018-09-14T06:20:46.472Z,12.77
2018-09-14T06:23:14.862Z,12.63
2018-09-14T06:25:43.742Z,12.45
2018-09-14T06:28:12.148Z,12.51
2018-09-14T06:30:40.519Z,12.65
2018-09-14T06:33:08.895Z,12.60
2018-09-14T06:35:37.365Z,12.62
2018-09-14T06:38:05.825Z,12.62
2018-09-14T06:40:35.360Z,12.73
2018-09-14T06:43:04.242Z,12.73
2018-09-14T06:45:32.633Z,12.78
2018-09-14T06:48:00.942Z,12.77
2018-09-14T06:50:29.783Z,12.78
2018-09-14T06:52:58.119Z,12.74
2018-09-14T06:55:27.166Z,12.72
2018-09-14T06:57:55.649Z,12.67
2018-09-14T07:00:24.080Z,12.83
2018-09-14T07:02:52.397Z,12.90
2018-09-14T07:05:21.214Z,13.04
2018-09-14T07:07:50.606Z,13.16
2018-09-14T07:10:19.545Z,13.00
2018-09-14T07:12:51.885Z,13.14
2018-09-14T07:15:21.062Z,13.17
2018-09-14T07:17:49.392Z,13.21
2018-09-14T07:20:17.999Z,13.21
2018-09-14T07:22:46.349Z,13.45
2018-09-14T07:25:14.719Z,13.51
2018-09-14T07:27:43.089Z,13.64
2018-09-14T07:30:12.866Z,13.66
2018-09-14T07:32:41.268Z,13.78
2018-09-14T07:35:09.644Z,13.73
2018-09-14T07:37:37.979Z,13.79
2018-09-14T07:40:06.389Z,13.58
2018-09-14T07:42:34.785Z,13.64
2018-09-14T07:45:03.223Z,13.58
2018-09-14T07:47:31.758Z,13.61
2018-09-14T07:50:00.985Z,13.58
2018-09-14T07:52:29.348Z,13.56
2018-09-14T07:54:57.848Z,13.38
2018-09-14T07:57:26.199Z,13.74
2018-09-14T07:59:54.551Z,13.63
2018-09-14T08:02:22.935Z,13.82
2018-09-14T08:04:51.267Z,13.68
2018-09-14T08:07:20.098Z,13.62
2018-09-14T08:09:48.489Z,13.58
2018-09-14T08:12:16.835Z,13.44
2018-09-14T08:14:45.407Z,13.67
2018-09-14T08:17:13.775Z,13.47
2018-09-14T08:19:42.223Z,13.44
2018-09-14T08:22:10.620Z,13.49
2018-09-14T08:24:39.036Z,13.73
2018-09-14T08:27:07.108Z,13.73
2018-09-14T08:29:35.462Z,13.93
2018-09-14T08:32:03.856Z,13.98
2018-09-14T08:34:32.212Z,14.38
2018-09-14T08:37:00.556Z,14.98
2018-09-14T08:39:31.845Z,15.49
2018-09-14T08:42:00.203Z,15.25
2018-09-14T08:44:28.596Z,15.62
2018-09-14T08:46:57.549Z,15.39
2018-09-14T08:49:25.875Z,15.36
2018-09-14T08:51:54.201Z,15.78
2018-09-14T08:54:22.521Z,15.99
2018-09-14T08:56:50.841Z,15.60
2018-09-14T08:59:19.202Z,15.48
2018-09-14T09:01:47.537Z,15.38
2018-09-14T09:04:15.902Z,15.21
2018-09-14T09:06:44.463Z,15.48
2018-09-14T09:09:13.662Z,15.65
2018-09-14T09:11:42.689Z,15.76
2018-09-14T09:14:11.090Z,16.02
2018-09-14T09:16:40.215Z,16.21
2018-09-14T09:19:08.896Z,16.20
2018-09-14T09:21:37.294Z,16.25
2018-09-14T09:24:05.649Z,16.39
2018-09-14T09:26:33.974Z,16.44
2018-09-14T09:29:02.319Z,16.30
2018-09-14T09:31:30.709Z,16.50
2018-09-14T09:33:59.091Z,16.55
2018-09-14T09:36:27.423Z,16.75
2018-09-14T09:38:55.973Z,16.92
2018-09-14T09:41:24.361Z,16.68
2018-09-14T09:43:52.688Z,16.71
2018-09-14T09:46:21.078Z,16.80
2018-09-14T09:48:49.439Z,16.78
2018-09-14T09:51:18.015Z,16.95
2018-09-14T09:53:46.357Z,16.84
2018-09-14T09:56:14.722Z,17.01
2018-09-14T09:58:46.154Z,16.94
2018-09-14T10:01:19.712Z,16.75
2018-09-14T10:03:53.427Z,16.87
2018-09-14T10:06:25.748Z,17.24
2018-09-14T10:08:55.295Z,17.51
2018-09-14T10:11:23.728Z,17.56
2018-09-14T10:13:52.109Z,17.45
2018-09-14T10:16:20.514Z,17.46
2018-09-14T10:18:48.883Z,17.41
2018-09-14T10:21:17.371Z,17.44
2018-09-14T10:23:45.853Z,17.34
2018-09-14T10:26:14.183Z,17.51
2018-09-14T10:28:42.573Z,17.81
2018-09-14T10:31:10.945Z,17.68
2018-09-14T10:33:39.279Z,17.57
2018-09-14T10:36:07.677Z,17.68
2018-09-14T10:38:35.987Z,17.83
2018-09-14T10:41:04.352Z,18.13
2018-09-14T10:43:32.728Z,18.45
2018-09-14T10:46:01.134Z,18.39
2018-09-14T10:48:29.463Z,18.68
2018-09-14T10:50:58.487Z,18.59
2018-09-14T10:53:26.864Z,18.42
2018-09-14T10:55:55.211Z,18.23
2018-09-14T10:58:23.794Z,18.31
2018-09-14T11:00:52.279Z,18.33
2018-09-14T11:03:20.624Z,18.13
2018-09-14T11:05:48.970Z,18.21
2018-09-14T11:08:17.335Z,18.50
2018-09-14T11:10:45.952Z,18.58
2018-09-14T11:13:14.276Z,18.47
2018-09-14T11:15:42.632Z,18.79
2018-09-14T11:18:10.958Z,18.99
2018-09-14T11:20:39.357Z,18.69
2018-09-14T11:23:07.651Z,18.64
2018-09-14T11:25:37.604Z,18.51
2018-09-14T11:28:06.075Z,18.30
2018-09-14T11:30:34.401Z,18.45
2018-09-14T11:33:02.789Z,18.75
2018-09-14T11:35:31.128Z,18.95
2018-09-14T11:38:00.781Z,19.00
2018-09-14T11:40:28.997Z,18.95
2018-09-14T11:42:57.304Z,18.61
2018-09-14T11:45:25.731Z,18.74
2018-09-14T11:47:54.168Z,18.95
2018-09-14T11:50:22.531Z,19.04
2018-09-14T11:52:50.948Z,18.59
2018-09-14T11:55:19.284Z,18.62
2018-09-14T11:57:47.651Z,18.82
2018-09-14T12:00:16.183Z,18.93
2018-09-14T12:02:44.488Z,18.65
2018-09-14T12:05:12.875Z,18.79
2018-09-14T12:07:41.283Z,18.54
2018-09-14T12:10:09.939Z,18.72
2018-09-14T12:12:38.278Z,18.84
2018-09-14T12:15:06.656Z,19.03
2018-09-14T12:17:34.967Z,19.13
2018-09-14T12:20:03.580Z,19.32
2018-09-14T12:22:31.963Z,19.08
2018-09-14T12:25:00.756Z,19.19
2018-09-14T12:27:29.168Z,18.99
2018-09-14T12:29:57.551Z,18.90
2018-09-14T12:32:25.986Z,19.09
2018-09-14T12:34:54.412Z,19.35
2018-09-14T12:37:23.748Z,19.28
2018-09-14T12:39:52.090Z,19.20
2018-09-14T12:42:20.455Z,19.16
2018-09-14T12:44:48.819Z,19.31
2018-09-14T12:47:17.244Z,19.38
2018-09-14T12:49:45.556Z,19.18
2018-09-14T12:52:13.962Z,19.35
2018-09-14T12:54:42.291Z,19.28
2018-09-14T12:57:10.889Z,19.49
2018-09-14T12:59:39.233Z,19.66
2018-09-14T13:02:08.239Z,19.56
2018-09-14T13:04:36.602Z,19.66
2018-09-14T13:07:06.306Z,19.43
2018-09-14T13:09:34.665Z,19.67
2018-09-14T13:12:03.202Z,19.72
2018-09-14T13:14:31.574Z,19.56
2018-09-14T13:17:00.628Z,19.65
2018-09-14T13:19:29.714Z,19.25
2018-09-14T13:21:58.039Z,19.43
2018-09-14T13:24:26.362Z,19.58
2018-09-14T13:26:54.742Z,19.46
2018-09-14T13:29:23.068Z,19.66
2018-09-14T13:31:51.374Z,19.45
2018-09-14T13:34:19.695Z,19.56
2018-09-14T13:36:48.161Z,19.61
2018-09-14T13:39:17.419Z,19.58
2018-09-14T13:41:45.934Z,19.51
2018-09-14T13:44:14.600Z,19.51
2018-09-14T13:46:43.116Z,19.52
2018-09-14T13:49:11.624Z,19.55
2018-09-14T13:51:40.094Z,19.51
2018-09-14T13:54:08.551Z,19.37
2018-09-14T13:56:37.012Z,19.03
2018-09-14T13:59:11.841Z,19.12
2018-09-14T14:01:41.153Z,19.24
2018-09-14T14:04:09.631Z,19.16
2018-09-14T14:06:38.361Z,19.14
2018-09-14T14:09:09.541Z,19.05
2018-09-14T14:11:38.099Z,18.92
2018-09-14T14:14:07.134Z,18.98
2018-09-14T14:16:35.589Z,19.00
2018-09-14T14:19:04.075Z,19.02
2018-09-14T14:21:32.543Z,19.00
2018-09-14T14:24:01.622Z,18.99
2018-09-14T14:26:30.297Z,19.01
2018-09-14T14:28:58.890Z,19.07
2018-09-14T14:31:28.157Z,19.00
2018-09-14T14:33:56.733Z,18.92
2018-09-14T14:36:25.771Z,18.90
2018-09-14T14:38:54.304Z,18.87
2018-09-14T14:41:22.884Z,18.84
2018-09-14T14:43:51.243Z,18.92
2018-09-14T14:46:19.728Z,18.92
2018-09-14T14:48:48.280Z,18.92
2018-09-14T14:51:16.770Z,18.85
2018-09-14T14:53:45.247Z,18.93
2018-09-14T14:56:13.718Z,18.94
2018-09-14T14:58:42.299Z,18.88
2018-09-14T15:01:10.814Z,18.87
2018-09-14T15:03:39.280Z,18.94
2018-09-14T15:06:08.169Z,18.97
2018-09-14T15:08:36.808Z,19.06
2018-09-14T15:11:05.335Z,18.94
2018-09-14T15:13:33.960Z,18.95
2018-09-14T15:16:02.447Z,18.95
2018-09-14T15:18:30.983Z,18.87
2018-09-14T15:20:59.480Z,18.88
2018-09-14T15:23:28.113Z,18.95
2018-09-14T15:25:56.762Z,18.96
2018-09-14T15:28:25.246Z,18.92
2018-09-14T15:30:53.676Z,18.85
2018-09-14T15:33:22.268Z,18.92
2018-09-14T15:35:50.713Z,18.86
2018-09-14T15:38:19.217Z,18.84
2018-09-14T15:40:48.618Z,18.86
2018-09-14T15:43:17.067Z,19.00
2018-09-14T15:45:45.489Z,18.95
2018-09-14T15:48:16.388Z,18.80
2018-09-14T15:50:44.884Z,18.84
2018-09-14T15:53:13.372Z,18.86
2018-09-14T15:55:41.894Z,18.82
2018-09-14T15:58:10.922Z,18.74
2018-09-14T16:00:39.419Z,18.69
2018-09-14T16:03:07.867Z,18.72
2018-09-14T16:05:36.320Z,18.65
2018-09-14T16:08:04.731Z,18.60
2018-09-14T16:10:33.172Z,18.58
2018-09-14T16:13:02.109Z,18.55
2018-09-14T16:15:30.639Z,18.56
2018-09-14T16:17:59.134Z,18.53
2018-09-14T16:20:27.613Z,18.46
2018-09-14T16:22:56.135Z,18.43
2018-09-14T16:25:24.677Z,18.43
2018-09-14T16:27:53.117Z,18.42
2018-09-14T16:30:21.715Z,18.43
2018-09-14T16:32:50.148Z,18.42
2018-09-14T16:35:18.544Z,18.41
2018-09-14T16:37:47.086Z,18.35
2018-09-14T16:40:15.713Z,18.28
2018-09-14T16:42:44.289Z,18.24
2018-09-14T16:45:12.837Z,18.18
2018-09-14T16:47:41.823Z,18.15
2018-09-14T16:50:10.283Z,18.18
2018-09-14T16:52:38.783Z,18.14
2018-09-14T16:55:08.916Z,18.07
2018-09-14T16:57:39.132Z,18.04
2018-09-14T17:00:08.844Z,18.00
2018-09-14T17:02:37.682Z,17.93
2018-09-14T17:05:06.548Z,17.91
2018-09-14T17:07:35.177Z,17.84
2018-09-14T17:10:03.991Z,17.78
2018-09-14T17:12:32.694Z,17.74
2018-09-14T17:15:01.298Z,17.68
2018-09-14T17:17:29.960Z,17.61
2018-09-14T17:19:58.487Z,17.60
2018-09-14T17:22:26.923Z,17.53
2018-09-14T17:24:55.419Z,17.44
2018-09-14T17:27:24.010Z,17.37
2018-09-14T17:29:52.702Z,17.35
2018-09-14T17:32:21.210Z,17.27
2018-09-14T17:34:49.742Z,17.10
2018-09-14T17:37:18.317Z,17.07
2018-09-14T17:39:47.773Z,16.98
2018-09-14T17:42:17.220Z,16.88
2018-09-14T17:44:45.699Z,16.91
2018-09-14T17:47:14.226Z,16.91
2018-09-14T17:49:42.691Z,16.80
2018-09-14T17:52:11.198Z,16.78
2018-09-14T17:54:39.761Z,16.59
2018-09-14T17:57:08.270Z,16.51
2018-09-14T17:59:36.643Z,16.54
2018-09-14T18:02:05.208Z,16.55
2018-09-14T18:04:33.878Z,16.48
2018-09-14T18:07:02.391Z,16.34
2018-09-14T18:09:31.028Z,16.27
2018-09-14T18:11:59.710Z,16.28
2018-09-14T18:14:28.400Z,16.20
2018-09-14T18:16:57.128Z,16.09
2018-09-14T18:19:26.086Z,16.06
2018-09-14T18:21:54.595Z,16.06
2018-09-14T18:24:23.575Z,16.00
2018-09-14T18:26:52.094Z,15.91
2018-09-14T18:29:20.576Z,15.90
2018-09-14T18:31:49.267Z,15.85
2018-09-14T18:34:17.733Z,15.80
2018-09-14T18:36:46.216Z,15.76
2018-09-14T18:39:15.692Z,15.76
2018-09-14T18:41:44.349Z,15.71
2018-09-14T18:44:12.779Z,15.61
2018-09-14T18:46:41.354Z,15.58
2018-09-14T18:49:10.276Z,15.52
2018-09-14T18:51:38.942Z,15.50
2018-09-14T18:54:08.106Z,15.43
2018-09-14T18:56:36.943Z,15.41
2018-09-14T18:59:05.929Z,15.36
2018-09-14T19:01:36.915Z,15.30
2018-09-14T19:04:05.497Z,15.26
2018-09-14T19:06:34.284Z,15.21
2018-09-14T19:09:02.832Z,15.11
2018-09-14T19:11:31.409Z,15.10
2018-09-14T19:13:59.848Z,15.07
2018-09-14T19:16:28.296Z,15.06
2018-09-14T19:18:56.889Z,15.04
2018-09-14T19:21:25.223Z,15.03
2018-09-14T19:23:53.627Z,15.00
2018-09-14T19:26:22.068Z,14.98
2018-09-14T19:28:50.534Z,14.92
2018-09-14T19:31:19.000Z,14.87
2018-09-14T19:33:47.645Z,14.82
2018-09-14T19:36:17.091Z,14.83
2018-09-14T19:38:45.603Z,14.74
2018-09-14T19:41:14.162Z,14.78
2018-09-14T19:43:42.657Z,14.72
2018-09-14T19:46:11.106Z,14.71
2018-09-14T19:48:39.539Z,14.67
2018-09-14T19:51:08.290Z,14.63
2018-09-14T19:53:36.817Z,14.61
2018-09-14T19:56:05.265Z,14.61
2018-09-14T19:58:33.675Z,14.58
2018-09-14T20:01:02.410Z,14.56
2018-09-14T20:03:30.825Z,14.53
2018-09-14T20:05:59.366Z,14.49
2018-09-14T20:08:27.824Z,14.44
2018-09-14T20:10:57.086Z,14.41
2018-09-14T20:13:25.796Z,14.38
2018-09-14T20:15:54.188Z,14.37
2018-09-14T20:18:23.528Z,14.31
2018-09-14T20:20:52.117Z,14.27
2018-09-14T20:23:21.591Z,14.26
2018-09-14T20:25:50.628Z,14.25
2018-09-14T20:28:18.924Z,14.20
2018-09-14T20:30:47.461Z,14.18
2018-09-14T20:33:16.306Z,14.15
2018-09-14T20:35:45.675Z,14.10
2018-09-14T20:38:14.491Z,14.06
2018-09-14T20:40:43.826Z,14.03
2018-09-14T20:43:13.097Z,14.01
2018-09-14T20:45:43.444Z,13.94
2018-09-14T20:48:12.531Z,13.90
2018-09-14T20:50:41.034Z,13.90
2018-09-14T20:53:09.424Z,13.86
2018-09-14T20:55:38.088Z,13.83
2018-09-14T20:58:06.450Z,13.80
2018-09-14T21:00:35.683Z,13.80
2018-09-14T21:03:06.905Z,13.80
2018-09-14T21:05:35.742Z,13.79
2018-09-14T21:08:04.147Z,13.79
2018-09-14T21:10:32.468Z,13.74
2018-09-14T21:13:02.368Z,13.73
2018-09-14T21:15:30.740Z,13.71
2018-09-14T21:17:59.093Z,13.69
2018-09-14T21:20:27.515Z,13.66
2018-09-14T21:22:55.847Z,13.63
2018-09-14T21:25:24.307Z,13.64
2018-09-14T21:27:52.897Z,13.60
2018-09-14T21:30:21.237Z,13.52
2018-09-14T21:32:49.613Z,13.48
2018-09-14T21:35:18.165Z,13.49
2018-09-14T21:37:46.656Z,13.42
2018-09-14T21:40:15.704Z,13.41
2018-09-14T21:42:44.084Z,13.43
2018-09-14T21:45:12.548Z,13.42
2018-09-14T21:47:40.900Z,13.40
2018-09-14T21:50:09.238Z,13.34
2018-09-14T21:52:37.662Z,13.27
2018-09-14T21:55:06.080Z,13.26
2018-09-14T21:57:34.535Z,13.28
2018-09-14T22:00:07.096Z,13.23
2018-09-14T22:02:35.490Z,13.21
2018-09-14T22:05:03.991Z,13.21
2018-09-14T22:07:32.345Z,13.20
2018-09-14T22:10:02.561Z,13.19
2018-09-14T22:12:31.050Z,13.18
2018-09-14T22:14:59.533Z,13.13
2018-09-14T22:17:27.906Z,13.13
2018-09-14T22:19:56.335Z,13.11
2018-09-14T22:22:24.725Z,13.06
2018-09-14T22:24:53.455Z,13.08
2018-09-14T22:27:21.811Z,13.07
2018-09-14T22:29:50.880Z,13.07
2018-09-14T22:32:19.298Z,13.09
2018-09-14T22:34:47.764Z,13.09
2018-09-14T22:37:16.112Z,13.12
2018-09-14T22:39:44.494Z,13.09
2018-09-14T22:42:12.858Z,13.08
2018-09-14T22:44:41.193Z,13.06
2018-09-14T22:47:09.508Z,13.09
2018-09-14T22:49:37.853Z,13.08
2018-09-14T22:52:06.941Z,13.01
2018-09-14T22:54:35.304Z,13.00
2018-09-14T22:57:03.652Z,12.96
2018-09-14T22:59:32.062Z,12.99
2018-09-14T23:02:00.411Z,12.97
2018-09-14T23:04:29.281Z,13.01
2018-09-14T23:06:57.642Z,13.05
2018-09-14T23:09:26.339Z,13.04
2018-09-14T23:11:54.617Z,13.00
2018-09-14T23:14:23.062Z,12.99
2018-09-14T23:16:52.197Z,12.97
2018-09-14T23:19:20.567Z,12.98
2018-09-14T23:21:49.019Z,12.96
2018-09-14T23:24:17.903Z,12.93
2018-09-14T23:26:46.337Z,12.91
2018-09-14T23:29:14.716Z,12.91
2018-09-14T23:31:43.652Z,12.86
2018-09-14T23:34:12.017Z,12.86
2018-09-14T23:36:40.397Z,12.85
2018-09-14T23:39:10.149Z,12.83
2018-09-14T23:41:38.521Z,12.85
2018-09-14T23:44:06.979Z,12.88
2018-09-14T23:46:35.387Z,12.89
2018-09-14T23:49:03.874Z,12.90
2018-09-14T23:51:32.197Z,12.93
2018-09-14T23:54:00.563Z,12.94
2018-09-14T23:56:28.923Z,12.95
2018-09-14T23:58:57.252Z,12.99
